Time;durP1;ratioP1;P1;durP2;ratioP2;P2;SDS_P1;SDS_P2;PMS_P1;PMS_P2;Temp;Humidity;BMP_temperature;BMP_pressure;BME280_temperature;BME280_humidity;BME280_pressure;Samples;Min_cycle;Max_cycle;Signal;HPM_P1;HPM_P2
2022/01/13 14:13:09;;;;;;;45.33;16.08;;;;;;;4.78;72.37;103614.53;5084929;27;20348;-71
2022/01/13 14:15:41;;;;;;;42.97;17.02;;;;;;;4.82;72.90;103605.69;5064134;28;20115;-72
2022/01/13 14:18:14;;;;;;;43.60;17.13;;;;;;;4.97;74.09;103606.97;5062699;28;20444;-69
2022/01/13 14:21:00;;;;;;;49.97;16.90;;;;;;;5.06;73.97;103606.69;5067172;28;20037;-70
2022/01/13 14:23:30;;;;;;;39.58;16.70;;;;;;;5.13;73.40;103600.31;5060291;28;20111;-70
2022/01/13 14:26:08;;;;;;;48.03;17.98;;;;;;;5.22;73.33;103596.53;5046433;28;20179;-70
2022/01/13 14:28:37;;;;;;;42.40;17.90;;;;;;;5.28;72.94;103598.13;5078245;28;20041;-70
2022/01/13 14:31:07;;;;;;;40.30;17.25;;;;;;;5.35;72.43;103594.38;5066665;28;20092;-70
2022/01/13 14:33:37;;;;;;;38.80;17.58;;;;;;;5.31;71.83;103575.19;5063582;28;20047;-70
2022/01/13 14:36:11;;;;;;;37.08;16.50;;;;;;;5.37;71.04;103584.66;5068841;28;20411;-69
2022/01/13 14:44:20;;;;;;;36.50;16.30;;;;;;;5.36;72.25;103582.91;5105916;27;20379;-71
2022/01/13 14:46:53;;;;;;;36.53;16.27;;;;;;;5.40;71.33;103584.53;5074718;28;20052;-71
2022/01/13 14:49:27;;;;;;;36.78;16.35;;;;;;;5.39;72.04;103580.19;5094541;28;20082;-71
2022/01/13 14:51:55;;;;;;;33.50;15.30;;;;;;;5.42;72.14;103580.09;5090046;28;20449;-71
2022/01/13 14:54:23;;;;;;;39.45;16.23;;;;;;;5.64;69.82;103576.72;5090000;28;20044;-71
2022/01/13 14:56:50;;;;;;;41.47;16.33;;;;;;;5.54;70.68;103565.66;5061312;28;20045;-71
2022/01/13 14:59:16;;;;;;;35.50;15.60;;;;;;;5.50;69.55;103578.06;5099020;28;20040;-70
2022/01/13 15:01:44;;;;;;;35.50;16.10;;;;;;;5.52;70.90;103573.59;5088916;28;20126;-70
2022/01/13 15:04:11;;;;;;;37.15;15.52;;;;;;;5.47;71.69;103579.94;5091749;28;20048;-70
2022/01/13 15:06:38;;;;;;;37.75;15.93;;;;;;;5.46;71.48;103581.72;5087848;28;20040;-70
2022/01/13 15:09:05;;;;;;;31.55;14.23;;;;;;;5.46;72.59;103572.97;5090337;28;20048;-70
2022/01/13 15:11:32;;;;;;;35.42;16.02;;;;;;;5.43;71.75;103578.31;5100446;28;20478;-70
2022/01/13 15:13:58;;;;;;;37.25;16.10;;;;;;;5.41;71.17;103572.25;5076388;28;20442;-70
2022/01/13 15:16:27;;;;;;;38.33;15.75;;;;;;;5.52;70.73;103580.63;5099642;28;20042;-70
2022/01/13 15:19:00;;;;;;;35.30;14.80;;;;;;;5.42;71.92;103574.84;5092816;28;20056;-70
2022/01/13 15:21:29;;;;;;;39.60;15.48;;;;;;;5.46;72.13;103570.31;5095728;28;20067;-70
2022/01/13 15:23:56;;;;;;;36.50;15.00;;;;;;;5.45;71.85;103553.66;5089644;28;20480;-70
2022/01/13 15:26:23;;;;;;;33.05;14.32;;;;;;;5.46;71.90;103557.16;5090133;28;20119;-69
2022/01/13 15:28:50;;;;;;;36.97;15.75;;;;;;;5.35;72.18;103558.38;5090203;28;20044;-70
2022/01/13 15:31:18;;;;;;;33.40;15.55;;;;;;;5.43;71.81;103546.72;5088681;28;20068;-69
2022/01/13 15:33:45;;;;;;;48.22;17.55;;;;;;;5.39;71.03;103556.50;5067892;28;20359;-70
2022/01/13 15:36:12;;;;;;;33.35;14.95;;;;;;;5.47;70.61;103548.31;5080555;28;20048;-70
2022/01/13 15:38:40;;;;;;;33.42;15.82;;;;;;;5.54;70.91;103549.84;5081390;28;20044;-70
2022/01/13 15:41:07;;;;;;;38.50;15.40;;;;;;;5.42;70.77;103552.88;5081234;28;20488;-70
2022/01/13 15:43:34;;;;;;;39.95;15.55;;;;;;;5.34;71.70;103554.00;5090583;28;20082;-70
2022/01/13 15:46:01;;;;;;;36.30;15.35;;;;;;;5.39;72.16;103556.50;5089544;28;20040;-70
2022/01/13 15:48:27;;;;;;;40.35;16.35;;;;;;;5.35;72.19;103557.50;5089050;28;20056;-70
2022/01/13 15:50:55;;;;;;;36.28;16.30;;;;;;;5.36;73.00;103557.44;5090068;28;20138;-70
2022/01/13 15:53:22;;;;;;;40.08;15.95;;;;;;;5.39;72.63;103564.38;5103922;28;20032;-70
2022/01/13 15:55:49;;;;;;;37.50;15.52;;;;;;;5.36;73.02;103559.22;5076896;28;20048;-71
2022/01/13 15:58:16;;;;;;;41.47;16.05;;;;;;;5.35;72.69;103561.00;5075286;28;20063;-70
2022/01/13 16:00:43;;;;;;;36.90;16.48;;;;;;;5.33;73.18;103554.94;5074622;28;20119;-70
2022/01/13 16:03:10;;;;;;;43.13;15.77;;;;;;;5.31;72.83;103561.13;5075380;28;20036;-70
2022/01/13 16:05:37;;;;;;;37.25;15.82;;;;;;;5.30;72.98;103557.66;5073190;28;20051;-71
2022/01/13 16:08:04;;;;;;;41.85;16.10;;;;;;;5.33;72.67;103554.03;5072047;28;20059;-70
2022/01/13 16:10:31;;;;;;;39.42;16.77;;;;;;;5.27;72.90;103560.38;5074593;28;20036;-70
2022/01/13 16:12:58;;;;;;;37.05;16.10;;;;;;;5.28;72.92;103559.47;5075887;28;20094;-70
2022/01/13 16:15:25;;;;;;;38.70;16.17;;;;;;;5.07;72.40;103554.91;5082213;28;20040;-70
2022/01/13 16:17:53;;;;;;;34.53;16.13;;;;;;;4.95;73.84;103554.41;5057478;28;20523;-70
2022/01/13 16:20:20;;;;;;;36.15;17.52;;;;;;;4.91;73.74;103549.28;5053732;28;20041;-70
2022/01/13 16:22:47;;;;;;;37.40;16.27;;;;;;;4.75;74.50;103546.28;5072077;28;20441;-70
2022/01/13 16:25:15;;;;;;;33.33;15.32;;;;;;;4.76;74.55;103542.72;5073434;28;20055;-71
2022/01/13 16:27:43;;;;;;;38.97;16.15;;;;;;;4.75;74.65;103548.91;5076221;28;20054;-70
2022/01/13 16:30:15;;;;;;;46.45;16.52;;;;;;;4.72;74.62;103554.25;5092286;28;20492;-70
2022/01/13 16:32:44;;;;;;;;;;;;;;;4.75;75.25;103554.16;5093001;28;20036;-70
2022/01/13 16:35:28;;;;;;;35.45;14.75;;;;;;;4.69;75.00;103554.34;5078864;28;19921;-70
2022/01/13 16:37:57;;;;;;;41.35;16.45;;;;;;;4.64;74.96;103549.22;5072426;28;20510;-70
2022/01/13 16:40:27;;;;;;;38.05;15.85;;;;;;;4.54;75.59;103553.88;5074734;28;20055;-69
2022/01/13 16:42:59;;;;;;;34.83;15.90;;;;;;;4.52;75.64;103549.59;5072743;28;20044;-69
2022/01/13 16:45:29;;;;;;;43.92;18.77;;;;;;;4.56;75.61;103551.22;5073565;28;20500;-70
2022/01/13 16:47:55;;;;;;;38.22;17.55;;;;;;;4.53;75.92;103549.56;5074006;28;20169;-70
2022/01/13 16:50:25;;;;;;;37.78;16.63;;;;;;;4.49;76.19;103550.53;5073167;28;20051;-70
2022/01/13 16:52:52;;;;;;;37.08;17.08;;;;;;;4.50;76.26;103549.63;5073732;28;20396;-70
2022/01/13 16:55:21;;;;;;;45.70;17.90;;;;;;;4.50;75.79;103552.28;5056132;28;20462;-70
2022/01/13 16:57:49;;;;;;;42.33;19.67;;;;;;;4.51;75.93;103556.63;5073887;28;20604;-70
2022/01/13 17:00:16;;;;;;;51.10;20.27;;;;;;;4.30;76.51;103552.84;5071809;28;20052;-70
2022/01/13 17:02:43;;;;;;;40.78;18.30;;;;;;;4.27;76.75;103552.94;5069827;28;20044;-70
2022/01/13 17:05:19;;;;;;;55.30;19.63;;;;;;;4.32;76.93;103556.28;5071480;28;20064;-70
2022/01/13 17:07:47;;;;;;;41.60;18.70;;;;;;;4.34;77.25;103545.75;5072153;28;20049;-70
2022/01/13 17:10:16;;;;;;;44.83;19.15;;;;;;;4.29;76.48;103545.00;5074073;28;20044;-70
2022/01/13 17:12:43;;;;;;;41.63;19.40;;;;;;;4.27;76.51;103545.06;5073362;28;20042;-70
2022/01/13 17:15:10;;;;;;;40.92;17.98;;;;;;;4.28;76.50;103541.53;5073330;28;20106;-70
2022/01/13 17:17:37;;;;;;;43.97;17.80;;;;;;;4.28;76.49;103541.53;5072876;28;20048;-70
2022/01/13 17:20:07;;;;;;;38.88;17.10;;;;;;;4.30;76.73;103544.13;5073687;28;20048;-70
2022/01/13 17:22:37;;;;;;;42.58;17.98;;;;;;;4.29;76.43;103542.38;5071943;28;20044;-70
2022/01/13 17:25:08;;;;;;;47.65;19.67;;;;;;;4.26;76.38;103535.47;5073556;28;20040;-70
2022/01/13 17:27:35;;;;;;;47.17;19.52;;;;;;;4.23;76.57;103531.13;5088682;28;20119;-70
2022/01/13 17:30:02;;;;;;;42.20;18.27;;;;;;;4.21;76.72;103538.22;5072957;28;20040;-70
2022/01/13 17:32:30;;;;;;;40.33;19.10;;;;;;;4.19;76.76;103537.41;5070504;28;20036;-70
2022/01/13 17:34:57;;;;;;;46.00;19.75;;;;;;;4.14;77.01;103536.66;5074255;28;20040;-70
2022/01/13 17:37:24;;;;;;;45.70;18.70;;;;;;;4.10;77.64;103536.81;5091054;28;20149;-70
2022/01/13 17:39:51;;;;;;;40.65;18.10;;;;;;;4.09;77.23;103533.28;5075068;28;20040;-70
2022/01/13 17:42:18;;;;;;;44.65;20.02;;;;;;;4.06;77.52;103532.53;5071969;28;20056;-70
2022/01/13 17:44:45;;;;;;;57.00;23.00;;;;;;;4.07;77.70;103526.38;5072754;28;20442;-70
2022/01/13 17:47:16;;;;;;;43.38;19.63;;;;;;;4.11;77.10;103534.13;5065525;28;20488;-70
2022/01/13 17:49:46;;;;;;;49.22;22.20;;;;;;;4.08;77.13;103525.50;5073648;28;20044;-71
2022/01/13 17:52:14;;;;;;;53.53;22.50;;;;;;;3.64;78.55;103534.53;5074769;28;20044;-70
2022/01/13 17:54:42;;;;;;;60.45;22.70;;;;;;;3.41;79.89;103531.66;5071848;28;20044;-70
2022/01/13 17:57:10;;;;;;;53.78;22.77;;;;;;;3.56;79.25;103538.25;5088137;28;20055;-70
2022/01/13 17:59:39;;;;;;;58.17;23.10;;;;;;;3.61;79.12;103537.22;5072839;28;20051;-71
2022/01/13 18:02:08;;;;;;;44.97;19.52;;;;;;;3.59;79.26;103535.56;5072962;28;20102;-71
2022/01/13 18:04:36;;;;;;;45.42;19.33;;;;;;;3.57;79.55;103537.38;5070881;28;20093;-70
2022/01/13 18:07:05;;;;;;;52.20;20.55;;;;;;;3.54;79.53;103529.56;5071941;28;20547;-70
2022/01/13 18:09:37;;;;;;;50.70;20.35;;;;;;;3.56;79.39;103533.84;5072531;28;20092;-70
2022/01/13 18:12:06;;;;;;;54.25;21.83;;;;;;;3.51;79.52;103533.16;5072812;28;20037;-70
2022/01/13 18:14:33;;;;;;;51.97;21.02;;;;;;;3.56;79.31;103539.09;5072590;28;20040;-71
2022/01/13 18:16:59;;;;;;;52.63;21.55;;;;;;;3.61;79.29;103537.22;5071141;28;20044;-71
2022/01/13 18:19:26;;;;;;;60.05;25.40;;;;;;;3.67;78.70;103536.19;5072229;28;20514;-71
2022/01/13 18:21:54;;;;;;;64.28;26.30;;;;;;;3.68;78.75;103540.56;5071391;28;20037;-70
2022/01/13 18:24:20;;;;;;;56.33;23.52;;;;;;;3.56;79.14;103543.50;5070642;28;20037;-71
2022/01/13 18:26:48;;;;;;;56.08;22.88;;;;;;;3.53;79.01;103543.56;5056343;28;20504;-70
2022/01/13 18:29:15;;;;;;;55.50;23.08;;;;;;;3.52;78.94;103545.34;5079760;28;20054;-70
2022/01/13 18:31:41;;;;;;;51.40;21.73;;;;;;;3.53;79.31;103543.56;5071307;28;20040;-72
2022/01/13 18:34:08;;;;;;;50.10;22.05;;;;;;;3.53;79.26;103546.19;5060371;28;20071;-72
2022/01/13 18:36:35;;;;;;;56.15;25.90;;;;;;;3.49;78.93;103549.81;5072746;28;20044;-71
2022/01/13 18:39:03;;;;;;;66.43;29.45;;;;;;;3.49;78.93;103547.19;5061210;28;20063;-71
2022/01/13 18:41:29;;;;;;;60.58;25.88;;;;;;;3.43;79.15;103541.19;5069266;28;20052;-71
2022/01/13 18:43:58;;;;;;;56.00;25.48;;;;;;;3.34;79.51;103538.78;5084216;28;20048;-71
2022/01/13 18:46:25;;;;;;;54.25;24.02;;;;;;;3.30;79.69;103542.41;5057875;28;20032;-71
2022/01/13 18:48:52;;;;;;;45.53;21.15;;;;;;;3.31;80.05;103548.50;5069324;28;20070;-71
2022/01/13 18:51:19;;;;;;;46.53;21.73;;;;;;;3.16;80.82;103547.13;5074100;28;20055;-71
2022/01/13 18:53:45;;;;;;;46.25;20.13;;;;;;;3.28;80.00;103546.84;5084415;28;20043;-71
2022/01/13 18:56:12;;;;;;;47.70;20.42;;;;;;;3.07;80.98;103545.56;5078052;28;20056;-71
2022/01/13 18:58:39;;;;;;;47.72;19.42;;;;;;;3.18;80.42;103555.81;5083750;28;20075;-71
2022/01/13 19:01:08;;;;;;;43.67;18.42;;;;;;;3.23;79.83;103546.94;5082897;28;20500;-71
2022/01/13 19:03:34;;;;;;;41.58;18.67;;;;;;;3.31;79.42;103545.88;5088085;28;20479;-71
2022/01/13 19:06:01;;;;;;;53.78;21.63;;;;;;;3.23;80.96;103543.47;5072099;28;20076;-71
2022/01/13 19:08:28;;;;;;;55.53;24.88;;;;;;;3.24;82.00;103551.28;5082906;28;20066;-71
2022/01/13 19:10:56;;;;;;;59.35;26.10;;;;;;;3.07;82.93;103556.97;5090471;28;20135;-72
2022/01/13 19:13:23;;;;;;;64.78;26.88;;;;;;;3.10;83.40;103545.53;5081238;28;20040;-71
2022/01/13 19:15:49;;;;;;;65.15;25.70;;;;;;;3.03;82.91;103550.03;5070303;28;20046;-71
2022/01/13 19:18:20;;;;;;;56.47;24.05;;;;;;;3.03;82.40;103550.03;5087639;28;20050;-71
2022/01/13 19:20:51;;;;;;;58.63;23.85;;;;;;;3.13;82.37;103544.56;5089735;28;20074;-71
2022/01/13 19:23:19;;;;;;;63.58;23.60;;;;;;;3.18;81.53;103546.19;5079114;28;20048;-71
2022/01/13 19:25:46;;;;;;;63.55;26.58;;;;;;;3.23;81.61;103539.06;5071018;28;20045;-71
2022/01/13 19:28:14;;;;;;;61.22;25.52;;;;;;;3.25;81.31;103536.41;5080349;28;20047;-71
2022/01/13 19:30:41;;;;;;;64.45;25.30;;;;;;;3.34;81.31;103538.78;5081150;28;20423;-71
2022/01/13 19:33:08;;;;;;;64.90;27.27;;;;;;;3.34;81.15;103535.31;5077776;28;20059;-71
2022/01/13 19:35:36;;;;;;;69.68;28.25;;;;;;;3.24;80.65;103529.44;5073839;28;20044;-71
2022/01/13 19:38:03;;;;;;;72.97;29.08;;;;;;;3.07;81.20;103545.56;5082417;28;20839;-71
2022/01/13 19:40:30;;;;;;;78.15;28.70;;;;;;;2.99;80.96;103544.91;5088067;28;20505;-71
2022/01/13 19:42:58;;;;;;;70.85;29.77;;;;;;;2.92;81.66;103531.06;5060163;28;20044;-71
2022/01/13 19:45:25;;;;;;;74.07;30.70;;;;;;;2.98;81.11;103535.31;5078623;28;20066;-71
2022/01/13 19:47:52;;;;;;;74.40;32.05;;;;;;;2.95;80.96;103536.25;5073817;28;20048;-71
2022/01/13 19:50:21;;;;;;;72.45;30.50;;;;;;;2.99;80.56;103534.44;5081901;28;20052;-71
2022/01/13 19:52:50;;;;;;;71.15;31.30;;;;;;;2.98;80.21;103541.41;5091908;28;20072;-71
2022/01/13 19:55:18;;;;;;;78.28;29.88;;;;;;;3.01;79.84;103537.88;5065693;28;20056;-71
2022/01/13 19:57:46;;;;;;;62.72;27.48;;;;;;;2.99;79.58;103529.19;5087038;28;20425;-71
2022/01/13 20:00:15;;;;;;;68.80;29.88;;;;;;;3.01;79.50;103527.38;5072575;28;20045;-71
2022/01/13 20:02:43;;;;;;;68.05;29.45;;;;;;;3.01;79.72;103520.38;5076350;28;20582;-70
2022/01/13 20:05:10;;;;;;;73.32;30.17;;;;;;;2.90;80.37;103522.38;5082098;28;20056;-71
2022/01/13 20:07:37;;;;;;;79.82;30.45;;;;;;;2.64;80.14;103523.00;5082832;28;20032;-71
2022/01/13 20:10:17;;;;;;;70.55;30.60;;;;;;;2.61;80.03;103513.44;5066489;28;20055;-70
2022/01/13 20:12:45;;;;;;;70.57;29.55;;;;;;;2.47;80.98;103503.28;5059979;28;20044;-70
2022/01/13 20:15:12;;;;;;;61.78;26.95;;;;;;;2.45;81.05;103517.28;5073363;28;20116;-71
2022/01/13 20:17:38;;;;;;;73.22;26.92;;;;;;;2.29;81.33;103501.91;5079565;28;20545;-70
2022/01/13 20:20:08;;;;;;;61.17;26.35;;;;;;;2.31;81.48;103507.13;5070300;28;20044;-70
2022/01/13 20:22:35;;;;;;;62.75;27.10;;;;;;;2.27;81.82;103510.69;5073597;28;20410;-70
2022/01/13 20:25:03;;;;;;;56.55;26.25;;;;;;;2.09;82.56;103517.16;5079430;28;20044;-70
2022/01/13 20:27:29;;;;;;;57.50;25.83;;;;;;;2.11;82.46;103511.00;5080430;28;20048;-70
2022/01/13 20:29:57;;;;;;;64.47;27.75;;;;;;;2.12;82.29;103509.25;5074612;28;20071;-71
2022/01/13 20:32:25;;;;;;;64.93;26.10;;;;;;;2.09;82.61;103514.53;5077856;28;20059;-70
2022/01/13 20:34:52;;;;;;;58.17;27.95;;;;;;;2.06;82.15;103509.38;5077921;28;20039;-70
2022/01/13 20:37:19;;;;;;;63.28;27.70;;;;;;;1.95;82.05;103509.59;5074056;28;20094;-70
2022/01/13 20:39:46;;;;;;;61.13;27.70;;;;;;;1.97;81.59;103502.56;5077556;28;20729;-70
2022/01/13 20:42:14;;;;;;;57.90;26.70;;;;;;;1.88;81.82;103502.75;5085781;28;20044;-71
2022/01/13 20:44:42;;;;;;;56.03;27.45;;;;;;;1.86;81.74;103501.91;5065024;28;20037;-70
2022/01/13 20:47:09;;;;;;;57.15;26.20;;;;;;;1.82;82.13;103495.00;5084112;28;20442;-70
2022/01/13 20:49:36;;;;;;;58.67;27.75;;;;;;;1.77;81.80;103499.47;5086242;28;20492;-71
2022/01/13 20:52:04;;;;;;;58.22;28.83;;;;;;;1.83;82.29;103496.72;5083581;28;20135;-71
2022/01/13 20:54:31;;;;;;;68.53;32.03;;;;;;;1.82;82.52;103497.63;5077741;28;20107;-70
2022/01/13 20:56:58;;;;;;;63.20;29.10;;;;;;;1.83;81.87;103502.81;5078288;28;20101;-70
2022/01/13 20:59:25;;;;;;;76.38;34.25;;;;;;;1.69;82.82;103500.50;5062580;28;20047;-70
2022/01/13 21:01:52;;;;;;;111.32;45.47;;;;;;;1.73;83.26;103504.75;5072149;28;20037;-71
2022/01/13 21:04:18;;;;;;;132.32;46.33;;;;;;;1.81;82.79;103503.75;5083896;28;20036;-71
2022/01/13 21:06:47;;;;;;;132.60;43.38;;;;;;;1.42;83.91;103501.84;5066056;28;20048;-71
2022/01/13 21:09:14;;;;;;;116.53;39.65;;;;;;;1.32;84.79;103511.59;5077560;28;20044;-71
2022/01/13 21:11:41;;;;;;;102.30;37.70;;;;;;;1.26;85.90;103510.84;5061243;28;20098;-71
2022/01/13 21:14:08;;;;;;;109.15;36.92;;;;;;;1.12;86.70;103505.84;5088964;28;20369;-71
2022/01/13 21:16:35;;;;;;;82.50;35.40;;;;;;;0.99;86.50;103513.03;5073159;28;20086;-71
2022/01/13 21:19:03;;;;;;;92.28;36.03;;;;;;;0.90;87.49;103506.19;5077679;28;20045;-71
2022/01/13 21:21:30;;;;;;;90.10;35.95;;;;;;;0.92;87.02;103508.78;5069570;28;20285;-71
2022/01/13 21:23:57;;;;;;;96.40;36.30;;;;;;;1.09;86.69;103500.66;5079162;28;20043;-71
2022/01/13 21:26:26;;;;;;;86.28;36.58;;;;;;;1.29;85.76;103498.59;5089256;28;20040;-71
2022/01/13 21:28:53;;;;;;;109.28;39.85;;;;;;;1.40;85.33;103502.75;5079427;28;20036;-71
2022/01/13 21:31:20;;;;;;;137.88;39.15;;;;;;;1.45;86.23;103504.38;5068312;28;20052;-71
2022/01/13 21:33:49;;;;;;;167.70;38.25;;;;;;;1.64;86.31;103504.09;5076489;28;20442;-71
2022/01/13 21:36:16;;;;;;;145.55;40.45;;;;;;;1.34;86.63;103504.56;5052741;28;20233;-69
2022/01/13 21:38:44;;;;;;;154.88;41.85;;;;;;;1.31;87.92;103511.63;5085655;28;20044;-71
2022/01/13 21:41:11;;;;;;;260.90;39.13;;;;;;;1.29;87.68;103506.44;5072132;28;20139;-72
2022/01/13 21:43:38;;;;;;;268.83;39.80;;;;;;;0.91;90.10;103502.69;5089793;28;20051;-71
2022/01/13 21:46:05;;;;;;;345.50;38.30;;;;;;;0.95;90.79;103508.72;5090126;28;20503;-71
2022/01/13 21:48:32;;;;;;;274.27;38.83;;;;;;;1.12;89.82;103495.38;5092664;28;20078;-71
2022/01/13 21:50:59;;;;;;;188.50;31.83;;;;;;;1.13;90.22;103520.66;5079572;28;20412;-71
2022/01/13 21:53:26;;;;;;;272.77;34.83;;;;;;;1.21;90.12;103512.69;5072167;28;20044;-72
2022/01/13 21:55:53;;;;;;;126.30;32.45;;;;;;;1.11;91.00;103517.19;5078099;28;20036;-71
2022/01/13 21:58:20;;;;;;;212.70;34.28;;;;;;;0.95;91.27;103516.56;5072757;28;20114;-71
2022/01/13 22:00:47;;;;;;;122.93;34.92;;;;;;;0.94;91.20;103509.59;5079774;28;20081;-71
2022/01/13 22:03:17;;;;;;;165.48;34.50;;;;;;;1.01;91.51;103503.41;5092194;28;20051;-71
2022/01/13 22:05:44;;;;;;;191.77;33.97;;;;;;;1.13;90.85;103503.22;5069702;28;20036;-71
2022/01/13 22:08:28;;;;;;;128.27;34.28;;;;;;;1.24;90.48;103497.81;5092249;28;20076;-71
2022/01/13 22:10:56;;;;;;;191.85;31.75;;;;;;;1.22;90.16;103486.50;5081642;28;20515;-71
2022/01/13 22:13:26;;;;;;;162.35;30.23;;;;;;;0.91;90.93;103494.84;5075322;28;20048;-71
2022/01/13 22:15:53;;;;;;;83.20;27.58;;;;;;;0.99;90.55;103504.31;5071772;28;20041;-71
2022/01/13 22:18:20;;;;;;;86.57;28.95;;;;;;;1.03;90.51;103499.00;5074864;28;20055;-70
2022/01/13 22:20:47;;;;;;;157.10;25.83;;;;;;;0.78;90.79;103503.75;5071965;28;20044;-71
2022/01/13 22:23:14;;;;;;;81.20;26.55;;;;;;;0.98;90.88;103497.34;5081808;28;20047;-71
2022/01/13 22:25:41;;;;;;;120.68;27.02;;;;;;;1.06;90.76;103488.50;5066728;28;20040;-70
2022/01/13 22:28:11;;;;;;;124.28;28.13;;;;;;;0.95;91.21;103496.50;5087318;28;20415;-70
2022/01/13 22:30:38;;;;;;;101.07;27.35;;;;;;;1.03;91.02;103491.16;5072449;28;20055;-71
2022/01/13 22:33:05;;;;;;;99.85;26.48;;;;;;;1.03;90.88;103491.16;5087486;28;20041;-71
2022/01/13 22:35:31;;;;;;;64.13;25.05;;;;;;;1.09;90.46;103488.47;5068460;28;20040;-71
2022/01/13 22:37:58;;;;;;;117.75;24.42;;;;;;;0.92;90.34;103500.94;5070431;28;20056;-70
2022/01/13 22:40:26;;;;;;;67.75;24.58;;;;;;;0.99;90.20;103496.47;5073699;28;20036;-71
2022/01/13 22:42:53;;;;;;;61.92;23.98;;;;;;;1.13;89.77;103490.13;5072200;28;20102;-71
2022/01/13 22:45:20;;;;;;;58.28;22.73;;;;;;;1.19;89.32;103489.16;5072142;28;20040;-70
2022/01/13 22:47:48;;;;;;;78.38;23.70;;;;;;;1.10;89.38;103489.31;5072188;28;20071;-71
2022/01/13 22:50:16;;;;;;;81.10;24.88;;;;;;;0.97;88.85;103488.66;5072534;28;20079;-70
2022/01/13 22:52:43;;;;;;;76.35;29.38;;;;;;;0.97;89.27;103491.28;5074467;28;20445;-70
2022/01/13 22:55:10;;;;;;;63.90;27.92;;;;;;;0.93;89.25;103490.44;5059484;28;20221;-71
2022/01/13 22:57:38;;;;;;;56.83;23.65;;;;;;;0.78;89.82;103485.44;5072477;28;20037;-70
2022/01/13 23:00:10;;;;;;;46.03;24.20;;;;;;;0.79;90.19;103479.34;5072545;28;20041;-71
2022/01/13 23:02:37;;;;;;;89.93;24.27;;;;;;;0.68;90.07;103489.97;5087520;28;20127;-71
2022/01/13 23:05:04;;;;;;;88.25;21.63;;;;;;;0.70;89.17;103477.72;5071345;28;20385;-70
2022/01/13 23:07:31;;;;;;;90.45;22.02;;;;;;;0.59;89.67;103474.41;5076465;28;20074;-70
2022/01/13 23:09:58;;;;;;;66.47;20.63;;;;;;;0.37;90.87;103479.94;5054898;28;20045;-70
2022/01/13 23:12:26;;;;;;;57.97;21.10;;;;;;;0.47;89.49;103478.06;5075080;28;20040;-70
2022/01/13 23:22:56;;;;;;;70.50;20.08;;;;;;;0.20;91.31;103466.28;5075028;28;20045;-70
2022/01/13 23:25:25;;;;;;;71.05;20.48;;;;;;;0.25;91.14;103466.19;5057558;28;20041;-70
2022/01/13 23:27:55;;;;;;;83.80;21.60;;;;;;;0.14;91.29;103463.72;5075158;28;20075;-70
2022/01/13 23:30:22;;;;;;;69.50;21.73;;;;;;;0.31;91.98;103459.16;5092299;28;20075;-71
2022/01/13 23:32:49;;;;;;;89.28;22.30;;;;;;;0.21;91.59;103457.53;5095435;28;20048;-71
2022/01/13 23:35:24;;;;;;;49.85;21.92;;;;;;;0.29;91.09;103458.31;5094092;28;20487;-70
2022/01/13 23:37:51;;;;;;;55.10;20.77;;;;;;;0.40;90.89;103447.72;5079446;28;20105;-71
2022/01/13 23:40:17;;;;;;;41.35;20.58;;;;;;;0.33;90.59;103449.53;5093707;28;20055;-70
2022/01/13 23:42:48;;;;;;;48.05;19.90;;;;;;;0.34;90.81;103448.63;5094256;28;20040;-70
2022/01/13 23:45:25;;;;;;;56.03;20.75;;;;;;;0.37;90.66;103443.38;5094878;28;20164;-70
2022/01/13 23:47:51;;;;;;;41.60;20.35;;;;;;;0.48;90.49;103439.75;5078676;28;20043;-70
2022/01/13 23:50:18;;;;;;;39.38;20.33;;;;;;;0.60;90.18;103438.69;5094300;28;20113;-70
2022/01/13 23:52:45;;;;;;;43.35;21.63;;;;;;;0.62;89.65;103427.34;5094692;28;20044;-70
2022/01/13 23:55:12;;;;;;;39.88;20.77;;;;;;;0.68;89.49;103422.03;5095062;28;20040;-70
2022/01/13 23:57:39;;;;;;;44.08;22.05;;;;;;;0.77;89.07;103421.03;5094729;28;20066;-70
